Astrahanka, Russia
Current Conditions -  °F | °C
As of 7:00 AM on Sunday 23 Nov 2014 (Local Time) from UHWW Reporting Station
Clear Clear  
Wind Chill: 14°   Ceiling: Unl
Heat Index: 14°   Visibility: 6mi
Dew Point:   Wind: 0mph
Humidity: 79%   Direction: NA
Pressure: 30.39"   Gusts: NA
Location:  44.72°N, 132.07°E
Report Text: UHWW 222100Z 00000MPS 9999 SKC M10/M13 Q1029 NOSIG RMKQFE770/1027 25CLRD70
Loading
Personal Weather Stations






























Interactive Weather Map New forecast layout! Learn more

10-Day Weather Forecast

Advertisements
Track Severe Weather on mobile